createdAt,value
2022-12-23T00:00:29.338Z,78.63
2022-12-23T00:02:56.528Z,78.47
2022-12-23T00:05:23.614Z,78.69
2022-12-23T00:07:50.397Z,78.66
2022-12-23T00:10:17.296Z,78.89
2022-12-23T00:13:02.491Z,78.86
2022-12-23T00:15:29.323Z,79.26
2022-12-23T00:17:56.175Z,78.94
2022-12-23T00:20:23.596Z,79.49
2022-12-23T00:23:05.320Z,79.12
2022-12-23T00:25:46.047Z,79.02
2022-12-23T00:28:20.222Z,78.53
2022-12-23T00:30:48.881Z,78.77
2022-12-23T00:33:18.306Z,78.87
2022-12-23T00:35:46.317Z,78.77
2022-12-23T00:38:13.550Z,79.22
2022-12-23T00:40:58.697Z,78.84
2022-12-23T00:43:25.549Z,79.05
2022-12-23T00:45:52.560Z,78.95
2022-12-23T00:48:37.798Z,78.69
2022-12-23T00:51:04.753Z,78.83
2022-12-23T00:53:31.557Z,78.31
2022-12-23T00:55:58.605Z,79.17
2022-12-23T00:58:26.515Z,78.79
2022-12-23T01:01:12.298Z,78.70
2022-12-23T01:03:57.640Z,78.87
2022-12-23T01:06:24.612Z,78.87
2022-12-23T01:08:51.540Z,78.78
2022-12-23T01:11:18.565Z,79.27
2022-12-23T01:13:45.397Z,79.50
2022-12-23T01:16:17.219Z,79.84
2022-12-23T01:18:45.250Z,79.79
2022-12-23T01:21:12.513Z,79.72
2022-12-23T01:23:39.562Z,80.72
2022-12-23T01:26:08.102Z,80.52
2022-12-23T01:28:36.095Z,80.42
2022-12-23T01:31:05.641Z,79.87
2022-12-23T01:33:33.548Z,79.99
2022-12-23T01:36:07.429Z,80.79
2022-12-23T01:38:34.996Z,80.34
2022-12-23T01:41:01.814Z,80.26
2022-12-23T01:43:50.690Z,79.63
2022-12-23T01:46:18.911Z,80.00
2022-12-23T01:48:51.208Z,79.80
2022-12-23T01:51:28.902Z,79.57
2022-12-23T01:54:01.187Z,79.68
2022-12-23T01:56:34.912Z,80.02
2022-12-23T01:59:10.493Z,80.00
2022-12-23T02:01:56.374Z,79.99
2022-12-23T02:04:25.581Z,79.79
2022-12-23T02:07:11.292Z,79.20
2022-12-23T02:09:40.606Z,80.13
2022-12-23T02:12:37.124Z,79.26
2022-12-23T02:15:37.585Z,79.44
2022-12-23T02:18:07.403Z,79.60
2022-12-23T02:21:36.547Z,79.44
2022-12-23T02:24:33.540Z,79.36
2022-12-23T02:27:09.645Z,79.55
2022-12-23T02:30:19.318Z,80.03
2022-12-23T02:33:12.892Z,79.48
2022-12-23T02:36:23.416Z,79.17
2022-12-23T02:39:07.952Z,79.80
2022-12-23T02:42:31.300Z,79.76
2022-12-23T02:45:04.003Z,80.01
2022-12-23T02:47:42.868Z,81.01
2022-12-23T02:50:18.669Z,80.73
2022-12-23T02:52:49.581Z,81.14
2022-12-23T02:55:25.691Z,80.78
2022-12-23T02:57:55.162Z,81.62
2022-12-23T03:00:22.771Z,82.72
2022-12-23T03:02:50.240Z,81.48
2022-12-23T03:05:39.262Z,81.29
2022-12-23T03:08:31.922Z,81.92
2022-12-23T03:11:09.756Z,81.37
2022-12-23T03:13:48.316Z,81.00
2022-12-23T03:16:28.397Z,81.04
2022-12-23T03:19:35.123Z,81.55
2022-12-23T03:22:34.405Z,81.62
2022-12-23T03:25:27.372Z,80.16
2022-12-23T03:28:11.408Z,79.66
2022-12-23T03:30:43.419Z,80.35
2022-12-23T03:33:24.439Z,80.09
2022-12-23T03:36:02.336Z,80.37
2022-12-23T03:38:32.812Z,81.03
2022-12-23T03:41:06.762Z,80.66
2022-12-23T03:43:44.944Z,80.60
2022-12-23T03:46:23.525Z,79.96
2022-12-23T03:48:59.007Z,80.23
2022-12-23T03:51:36.393Z,79.90
2022-12-23T03:54:16.562Z,79.81
2022-12-23T03:56:55.026Z,79.12
2022-12-23T03:59:28.812Z,78.62
2022-12-23T04:02:44.660Z,79.97
2022-12-23T04:05:40.438Z,79.85
2022-12-23T04:08:27.408Z,78.73
2022-12-23T04:10:54.587Z,80.19
2022-12-23T04:13:21.370Z,79.71
2022-12-23T04:15:48.343Z,79.51
2022-12-23T04:18:16.370Z,80.03
2022-12-23T04:20:43.236Z,79.08
2022-12-23T04:23:10.426Z,78.89
2022-12-23T04:25:37.244Z,79.77
2022-12-23T04:28:04.283Z,80.44
2022-12-23T04:30:34.445Z,79.56
2022-12-23T04:33:02.189Z,79.49
2022-12-23T04:35:29.577Z,79.76
2022-12-23T04:37:56.424Z,79.74
2022-12-23T04:40:23.258Z,80.76
2022-12-23T04:42:50.099Z,80.26
2022-12-23T04:45:17.044Z,80.00
2022-12-23T04:47:43.855Z,80.21
2022-12-23T04:50:14.959Z,79.32
2022-12-23T04:52:43.114Z,80.23
2022-12-23T04:55:10.801Z,81.88
2022-12-23T04:57:37.666Z,81.19
2022-12-23T05:00:05.824Z,80.62
2022-12-23T05:02:32.743Z,81.41
2022-12-23T05:04:59.668Z,82.02
2022-12-23T05:07:26.484Z,81.17
2022-12-23T05:09:53.385Z,80.90
2022-12-23T05:12:20.187Z,82.84
2022-12-23T05:14:47.253Z,82.09
2022-12-23T05:17:14.078Z,82.15
2022-12-23T05:19:40.856Z,82.35
2022-12-23T05:22:07.650Z,81.61
2022-12-23T05:24:34.428Z,83.33
2022-12-23T05:27:01.256Z,83.77
2022-12-23T05:29:28.513Z,81.89
2022-12-23T05:31:55.424Z,82.37
2022-12-23T05:34:22.327Z,82.52
2022-12-23T05:36:49.239Z,82.68
2022-12-23T05:39:16.053Z,83.74
2022-12-23T05:41:43.029Z,81.76
2022-12-23T05:44:10.022Z,83.35
2022-12-23T05:46:36.968Z,82.47
2022-12-23T05:49:03.951Z,82.70
2022-12-23T05:51:30.777Z,82.31
2022-12-23T05:53:57.604Z,82.21
2022-12-23T05:56:24.457Z,82.93
2022-12-23T05:58:51.283Z,83.08
2022-12-23T06:01:18.740Z,82.94
2022-12-23T06:03:45.751Z,82.34
2022-12-23T06:06:12.706Z,83.96
2022-12-23T06:08:39.557Z,85.10
2022-12-23T06:11:06.717Z,84.52
2022-12-23T06:13:33.575Z,85.01
2022-12-23T06:16:00.421Z,84.99
2022-12-23T06:18:27.315Z,84.90
2022-12-23T06:20:54.194Z,84.32
2022-12-23T06:23:21.061Z,84.64
2022-12-23T06:25:47.871Z,84.45
2022-12-23T06:28:14.731Z,83.88
2022-12-23T06:30:41.560Z,84.71
2022-12-23T06:33:08.403Z,84.40
2022-12-23T06:35:35.194Z,84.40
2022-12-23T06:38:02.045Z,84.65
2022-12-23T06:40:29.633Z,84.64
2022-12-23T06:42:56.610Z,83.83
2022-12-23T06:45:23.458Z,84.03
2022-12-23T06:47:50.337Z,84.12
2022-12-23T06:50:17.215Z,85.12
2022-12-23T06:52:45.548Z,84.61
2022-12-23T06:55:12.515Z,84.66
2022-12-23T06:57:39.371Z,84.57
2022-12-23T07:00:07.716Z,83.90
2022-12-23T07:02:35.080Z,83.96
2022-12-23T07:05:02.440Z,85.15
2022-12-23T07:07:29.658Z,84.41
2022-12-23T07:09:56.486Z,84.68
2022-12-23T07:12:23.286Z,84.58
2022-12-23T07:14:50.128Z,84.12
2022-12-23T07:17:17.293Z,84.24
2022-12-23T07:19:44.181Z,85.42
2022-12-23T07:22:11.046Z,83.87
2022-12-23T07:24:38.072Z,85.74
2022-12-23T07:27:05.296Z,84.86
2022-12-23T07:29:32.119Z,84.71
2022-12-23T07:31:59.113Z,84.25
2022-12-23T07:34:25.993Z,84.12
2022-12-23T07:36:52.841Z,84.50
2022-12-23T07:39:19.893Z,84.07
2022-12-23T07:41:46.736Z,84.17
2022-12-23T07:44:13.916Z,83.80
2022-12-23T07:46:40.748Z,83.54
2022-12-23T07:49:08.046Z,83.11
2022-12-23T07:51:34.850Z,83.07
2022-12-23T07:54:01.730Z,83.45
2022-12-23T07:56:28.636Z,83.71
2022-12-23T07:58:55.527Z,83.67
2022-12-23T08:01:22.678Z,84.04
2022-12-23T08:03:49.620Z,83.46
2022-12-23T08:06:17.013Z,83.32
2022-12-23T08:08:46.329Z,83.06
2022-12-23T08:11:16.725Z,83.16
2022-12-23T08:13:45.638Z,82.42
2022-12-23T08:16:12.946Z,82.41
2022-12-23T08:18:41.984Z,81.87
2022-12-23T08:21:17.892Z,81.47
2022-12-23T08:23:47.191Z,82.07
2022-12-23T08:26:23.167Z,81.37
2022-12-23T08:28:53.491Z,81.89
2022-12-23T08:31:28.414Z,81.71
2022-12-23T08:33:57.966Z,81.88
2022-12-23T08:36:29.441Z,81.18
2022-12-23T08:38:59.017Z,82.15
2022-12-23T08:41:36.566Z,77.39
2022-12-23T08:44:04.126Z,75.02
2022-12-23T08:46:31.004Z,72.65
2022-12-23T08:48:59.111Z,73.02
2022-12-23T08:51:28.287Z,74.52
2022-12-23T08:54:01.106Z,75.66
2022-12-23T08:56:33.076Z,77.05
2022-12-23T08:59:01.150Z,77.65
2022-12-23T09:01:31.411Z,79.77
2022-12-23T09:03:58.975Z,80.10
2022-12-23T09:06:30.441Z,80.23
2022-12-23T09:08:58.590Z,79.41
2022-12-23T09:11:29.728Z,80.76
2022-12-23T09:13:59.515Z,80.76
2022-12-23T09:16:27.450Z,80.97
2022-12-23T09:18:54.361Z,80.65
2022-12-23T09:21:23.467Z,80.23
2022-12-23T09:23:51.158Z,79.65
2022-12-23T09:26:24.800Z,79.39
2022-12-23T09:28:52.314Z,79.28
2022-12-23T09:31:19.979Z,79.54
2022-12-23T09:33:49.443Z,79.33
2022-12-23T09:36:17.497Z,79.21
2022-12-23T09:38:44.951Z,79.16
2022-12-23T09:41:53.875Z,78.84
2022-12-23T09:44:47.405Z,78.22
2022-12-23T09:47:22.311Z,77.95
2022-12-23T09:49:57.239Z,76.75
2022-12-23T09:52:48.200Z,76.81
2022-12-23T09:55:16.498Z,78.26
2022-12-23T09:58:01.113Z,78.41
2022-12-23T10:00:41.632Z,76.45
2022-12-23T10:03:22.471Z,76.29
2022-12-23T10:06:11.588Z,75.73
2022-12-23T10:08:43.225Z,76.58
2022-12-23T10:11:27.044Z,76.24
2022-12-23T10:14:05.128Z,76.19
2022-12-23T10:16:50.703Z,76.17
2022-12-23T10:19:48.506Z,75.32
2022-12-23T10:22:41.367Z,74.93
2022-12-23T10:25:23.065Z,75.70
2022-12-23T10:27:50.101Z,76.90
2022-12-23T10:34:05.786Z,76.35
2022-12-23T10:37:08.236Z,76.11
2022-12-23T10:39:56.678Z,76.59
2022-12-23T10:43:15.260Z,76.84
2022-12-23T10:45:54.357Z,76.78
2022-12-23T10:48:38.307Z,77.45
2022-12-23T10:51:22.074Z,78.24
2022-12-23T10:53:56.944Z,77.63
2022-12-23T10:56:23.849Z,78.74
2022-12-23T10:58:55.357Z,78.81
2022-12-23T11:01:27.118Z,78.13
2022-12-23T11:04:07.904Z,78.15
2022-12-23T11:06:40.451Z,77.89
2022-12-23T11:09:23.019Z,77.65
2022-12-23T11:12:06.505Z,78.72
2022-12-23T11:14:44.082Z,78.45
2022-12-23T11:17:24.889Z,78.69
2022-12-23T11:20:10.469Z,78.62
2022-12-23T11:23:02.241Z,78.21
2022-12-23T11:25:43.574Z,78.12
2022-12-23T11:28:10.320Z,78.44
2022-12-23T11:30:55.861Z,78.31
2022-12-23T11:33:37.707Z,78.75
2022-12-23T11:36:13.667Z,79.05
2022-12-23T11:38:50.833Z,80.04
2022-12-23T11:41:28.457Z,80.62
2022-12-23T11:44:26.492Z,80.12
2022-12-23T11:46:53.413Z,80.28
2022-12-23T11:49:31.451Z,81.60
2022-12-23T11:52:11.766Z,81.32
2022-12-23T11:54:39.487Z,81.27
2022-12-23T11:57:15.826Z,82.84
2022-12-23T11:59:48.865Z,82.72
2022-12-23T12:02:39.880Z,82.42
2022-12-23T12:05:16.713Z,82.79
2022-12-23T12:07:45.287Z,81.21
2022-12-23T12:10:28.630Z,81.30
2022-12-23T12:13:05.484Z,81.27
2022-12-23T12:15:41.141Z,81.14
2022-12-23T12:18:15.232Z,81.39
2022-12-23T12:20:54.006Z,80.66
2022-12-23T12:23:40.730Z,80.79
2022-12-23T12:26:31.818Z,80.29
2022-12-23T12:29:37.717Z,80.49
2022-12-23T12:32:12.322Z,80.21
2022-12-23T12:35:22.169Z,80.08
2022-12-23T12:37:57.092Z,80.17
2022-12-23T12:40:39.307Z,80.30
2022-12-23T12:43:34.821Z,80.16
2022-12-23T12:46:43.575Z,80.44
2022-12-23T12:49:49.967Z,80.55
2022-12-23T12:52:22.296Z,80.41
2022-12-23T12:54:55.766Z,80.10
2022-12-23T12:57:25.081Z,80.17
2022-12-23T13:00:03.583Z,80.15
2022-12-23T13:03:09.112Z,80.29
2022-12-23T13:06:13.522Z,80.76
2022-12-23T13:09:17.481Z,80.43
2022-12-23T13:11:58.886Z,80.21
2022-12-23T13:15:12.334Z,80.50
2022-12-23T13:18:28.307Z,80.46
2022-12-23T13:21:13.358Z,80.19
2022-12-23T13:24:03.940Z,79.94
2022-12-23T13:26:49.318Z,81.19
2022-12-23T13:30:01.121Z,81.33
2022-12-23T13:32:59.768Z,81.00
2022-12-23T13:35:46.557Z,81.18
2022-12-23T13:39:04.572Z,80.55
2022-12-23T13:41:44.103Z,80.44
2022-12-23T13:44:13.540Z,80.32
2022-12-23T13:47:16.067Z,81.88
2022-12-23T13:49:54.552Z,81.30
2022-12-23T13:53:17.547Z,82.04
2022-12-23T13:56:17.235Z,81.89
2022-12-23T13:58:49.142Z,82.06
2022-12-23T14:01:15.884Z,81.79
2022-12-23T14:03:44.966Z,83.92
2022-12-23T14:06:22.386Z,82.94
2022-12-23T14:08:51.039Z,82.84
2022-12-23T14:11:31.963Z,82.49
2022-12-23T14:14:02.018Z,83.24
2022-12-23T14:16:28.810Z,83.76
2022-12-23T14:19:38.949Z,83.53
2022-12-23T14:22:26.762Z,82.72
2022-12-23T14:25:58.047Z,83.68
2022-12-23T14:28:37.133Z,82.95
2022-12-23T14:31:05.703Z,83.56
2022-12-23T14:33:37.934Z,82.98
2022-12-23T14:36:25.993Z,83.55
2022-12-23T14:39:11.492Z,83.56
2022-12-23T14:41:39.495Z,85.18
2022-12-23T14:44:38.188Z,83.63
2022-12-23T14:47:32.252Z,83.93
2022-12-23T14:50:42.552Z,83.98
2022-12-23T14:53:30.260Z,83.74
2022-12-23T14:56:15.120Z,83.35
2022-12-23T14:59:07.880Z,84.05
2022-12-23T15:01:48.363Z,83.41
2022-12-23T15:04:29.253Z,83.71
2022-12-23T15:07:13.699Z,84.48
2022-12-23T15:10:01.156Z,83.55
2022-12-23T15:12:32.910Z,83.42
2022-12-23T15:15:13.890Z,84.70
2022-12-23T15:17:40.910Z,84.34
2022-12-23T15:20:15.576Z,84.02
2022-12-23T15:22:44.791Z,84.13
2022-12-23T15:25:27.269Z,83.48
2022-12-23T15:28:01.427Z,84.38
2022-12-23T15:30:34.074Z,83.52
2022-12-23T15:33:16.062Z,83.51
2022-12-23T15:35:53.583Z,83.87
2022-12-23T15:38:22.377Z,84.30
2022-12-23T15:41:02.996Z,84.30
2022-12-23T15:43:30.935Z,84.75
2022-12-23T15:46:26.804Z,85.03
2022-12-23T15:48:56.710Z,84.83
2022-12-23T15:52:05.737Z,83.96
2022-12-23T15:54:52.604Z,84.01
2022-12-23T15:57:22.714Z,83.86
2022-12-23T15:59:50.180Z,84.10
2022-12-23T16:02:59.780Z,83.74
2022-12-23T16:05:34.903Z,83.48
2022-12-23T16:08:31.539Z,84.38
2022-12-23T16:11:18.984Z,84.03
2022-12-23T16:14:02.074Z,84.07
2022-12-23T16:16:40.973Z,84.46
2022-12-23T16:19:39.956Z,84.67
2022-12-23T16:22:22.474Z,84.15
2022-12-23T16:24:59.124Z,83.84
2022-12-23T16:27:48.122Z,83.81
2022-12-23T16:30:19.032Z,83.75
2022-12-23T16:32:55.790Z,84.20
2022-12-23T16:35:33.695Z,84.20
2022-12-23T16:38:22.605Z,84.07
2022-12-23T16:40:53.626Z,83.50
2022-12-23T16:43:22.322Z,83.25
2022-12-23T16:45:57.270Z,83.16
2022-12-23T16:48:33.164Z,83.31
2022-12-23T16:51:02.111Z,83.75
2022-12-23T16:53:29.023Z,83.15
2022-12-23T16:56:00.583Z,83.31
2022-12-23T16:58:28.393Z,83.77
2022-12-23T17:00:55.965Z,84.72
2022-12-23T17:03:22.857Z,83.98
2022-12-23T17:05:49.732Z,84.86
2022-12-23T17:08:16.677Z,83.54
2022-12-23T17:10:44.927Z,84.66
2022-12-23T17:13:15.153Z,85.99
2022-12-23T17:15:42.012Z,84.56
2022-12-23T17:18:17.360Z,85.05
2022-12-23T17:20:46.565Z,84.56
2022-12-23T17:23:31.101Z,85.02
2022-12-23T17:25:58.850Z,85.00
2022-12-23T17:28:32.350Z,84.34
2022-12-23T17:31:00.219Z,84.31
2022-12-23T17:33:31.071Z,83.77
2022-12-23T17:35:58.345Z,83.62
2022-12-23T17:38:25.391Z,82.63
2022-12-23T17:40:52.250Z,83.10
2022-12-23T17:43:19.515Z,82.40
2022-12-23T17:45:47.162Z,82.05
2022-12-23T17:48:20.847Z,81.80
2022-12-23T17:50:50.246Z,82.64
2022-12-23T17:53:19.487Z,82.90
2022-12-23T17:55:46.701Z,82.60
2022-12-23T17:58:14.352Z,82.94
2022-12-23T18:00:41.756Z,81.52
2022-12-23T18:03:23.118Z,81.00
2022-12-23T18:05:52.965Z,81.50
2022-12-23T18:08:21.199Z,80.19
2022-12-23T18:10:48.225Z,79.59
2022-12-23T18:13:20.101Z,80.70
2022-12-23T18:15:47.675Z,80.46
2022-12-23T18:18:27.551Z,80.59
2022-12-23T18:21:00.092Z,80.62
2022-12-23T18:23:32.871Z,81.46
2022-12-23T18:26:00.705Z,82.62
2022-12-23T18:28:27.732Z,81.56
2022-12-23T18:30:58.455Z,82.08
2022-12-23T18:33:28.664Z,81.10
2022-12-23T18:35:55.853Z,81.55
2022-12-23T18:38:23.018Z,81.75
2022-12-23T18:40:53.772Z,81.50
2022-12-23T18:43:24.769Z,80.70
2022-12-23T18:45:53.795Z,81.16
2022-12-23T18:48:21.517Z,80.45
2022-12-23T18:50:48.906Z,79.76
2022-12-23T18:53:24.724Z,79.99
2022-12-23T18:55:53.946Z,81.02
2022-12-23T18:58:22.283Z,80.58
2022-12-23T19:00:50.262Z,80.34
2022-12-23T19:03:25.860Z,80.55
2022-12-23T19:05:54.147Z,80.43
2022-12-23T19:08:26.762Z,80.89
2022-12-23T19:10:55.825Z,79.94
2022-12-23T19:13:23.205Z,79.67
2022-12-23T19:15:50.715Z,79.31
2022-12-23T19:18:20.439Z,79.68
2022-12-23T19:20:48.705Z,79.31
2022-12-23T19:23:16.199Z,79.57
2022-12-23T19:25:52.547Z,79.13
2022-12-23T19:28:21.866Z,78.95
2022-12-23T19:30:49.166Z,79.13
2022-12-23T19:33:16.235Z,78.47
2022-12-23T19:35:43.891Z,79.60
2022-12-23T19:38:12.152Z,78.46
2022-12-23T19:40:39.198Z,79.35
2022-12-23T19:43:06.034Z,78.52
2022-12-23T19:45:33.117Z,78.21
2022-12-23T19:47:59.932Z,77.70
2022-12-23T19:50:27.306Z,78.16
2022-12-23T19:52:56.293Z,78.10
2022-12-23T19:55:23.674Z,77.90
2022-12-23T19:57:51.721Z,77.13
2022-12-23T20:00:18.728Z,77.41
2022-12-23T20:02:45.623Z,77.80
2022-12-23T20:05:12.490Z,76.80
2022-12-23T20:07:39.499Z,77.04
2022-12-23T20:10:07.447Z,77.38
2022-12-23T20:12:34.341Z,77.06
2022-12-23T20:15:01.186Z,76.28
2022-12-23T20:17:28.056Z,77.40
2022-12-23T20:19:54.842Z,77.19
2022-12-23T20:22:21.680Z,77.14
2022-12-23T20:24:48.981Z,76.86
2022-12-23T20:27:16.379Z,77.43
2022-12-23T20:29:44.435Z,77.48
2022-12-23T20:32:11.258Z,77.83
2022-12-23T20:34:40.076Z,78.45
2022-12-23T20:37:07.574Z,78.10
2022-12-23T20:39:34.893Z,78.14
2022-12-23T20:42:01.948Z,78.39
2022-12-23T20:44:37.327Z,78.48
2022-12-23T20:47:06.513Z,78.41
2022-12-23T20:49:33.440Z,78.45
2022-12-23T20:52:00.668Z,79.46
2022-12-23T20:54:33.617Z,79.26
2022-12-23T20:57:02.055Z,81.32
2022-12-23T20:59:29.415Z,80.84
2022-12-23T21:01:58.942Z,82.02
2022-12-23T21:04:26.708Z,82.82
2022-12-23T21:06:53.784Z,82.41
2022-12-23T21:09:20.596Z,81.96
2022-12-23T21:11:48.577Z,82.64
2022-12-23T21:14:16.158Z,81.09
2022-12-23T21:16:43.675Z,80.66
2022-12-23T21:19:16.936Z,82.12
2022-12-23T21:21:44.265Z,83.26
2022-12-23T21:24:11.466Z,81.64
2022-12-23T21:26:38.841Z,81.78
2022-12-23T21:29:08.513Z,81.85
2022-12-23T21:31:39.142Z,82.46
2022-12-23T21:34:06.758Z,82.22
2022-12-23T21:36:37.304Z,81.17
2022-12-23T21:39:06.001Z,80.39
2022-12-23T21:41:37.411Z,80.45
2022-12-23T21:44:05.441Z,80.67
2022-12-23T21:46:32.615Z,80.94
2022-12-23T21:49:00.783Z,82.50
2022-12-23T21:51:39.020Z,81.84
2022-12-23T21:54:07.893Z,81.66
2022-12-23T21:56:35.368Z,82.25
2022-12-23T21:59:11.091Z,82.10
2022-12-23T22:01:38.677Z,82.39
2022-12-23T22:04:06.031Z,82.52
2022-12-23T22:06:39.950Z,82.33
2022-12-23T22:09:08.035Z,82.27
2022-12-23T22:11:37.052Z,83.64
2022-12-23T22:14:07.430Z,82.31
2022-12-23T22:16:35.814Z,81.89
2022-12-23T22:19:05.614Z,81.45
2022-12-23T22:21:34.484Z,82.39
2022-12-23T22:24:02.314Z,81.96
2022-12-23T22:26:32.380Z,82.50
2022-12-23T22:29:03.108Z,83.36
2022-12-23T22:31:40.459Z,82.19
2022-12-23T22:34:09.112Z,82.34
2022-12-23T22:36:36.294Z,82.44
2022-12-23T22:39:03.529Z,81.91
2022-12-23T22:41:31.488Z,81.34
2022-12-23T22:43:59.432Z,83.04
2022-12-23T22:46:27.237Z,83.67
2022-12-23T22:48:54.867Z,82.16
2022-12-23T22:51:27.074Z,83.10
2022-12-23T22:53:55.073Z,81.99
2022-12-23T22:56:23.585Z,82.14
2022-12-23T22:58:51.946Z,82.29
2022-12-23T23:01:29.530Z,81.71
2022-12-23T23:03:58.455Z,82.29
2022-12-23T23:06:39.675Z,82.34
2022-12-23T23:09:09.563Z,83.76
2022-12-23T23:11:36.461Z,83.37
2022-12-23T23:14:03.438Z,82.79
2022-12-23T23:16:30.752Z,82.58
2022-12-23T23:18:59.059Z,82.40
2022-12-23T23:21:26.541Z,81.51
2022-12-23T23:23:53.405Z,81.41
2022-12-23T23:26:20.798Z,81.04
2022-12-23T23:28:48.197Z,80.94
2022-12-23T23:34:02.129Z,80.41
2022-12-23T23:36:29.095Z,80.67
2022-12-23T23:38:56.025Z,80.60
2022-12-23T23:41:24.032Z,80.70
2022-12-23T23:43:52.071Z,80.92
2022-12-23T23:46:19.440Z,80.44
2022-12-23T23:48:46.371Z,80.31
2022-12-23T23:51:13.381Z,80.21
2022-12-23T23:53:40.668Z,80.11
2022-12-23T23:56:08.980Z,80.32
2022-12-23T23:58:37.088Z,80.75
